Time;durP1;ratioP1;P1;durP2;ratioP2;P2;SDS_P1;SDS_P2;PMS_P1;PMS_P2;Temp;Humidity;BMP_temperature;BMP_pressure;BME280_temperature;BME280_humidity;BME280_pressure;Samples;Min_cycle;Max_cycle;Signal;HPM_P1;HPM_P2
2023/12/05 00:01:01;;;;;;;24.53;15.90;;;1.00;99.90;;;;;;5074160;28;20147;-82
2023/12/05 00:03:27;;;;;;;25.90;16.40;;;1.00;99.90;;;;;;5075668;28;20135;-83
2023/12/05 00:05:52;;;;;;;24.10;16.10;;;1.00;99.90;;;;;;5075039;28;20392;-83
2023/12/05 00:08:18;;;;;;;22.40;15.80;;;1.10;99.90;;;;;;5075592;28;20047;-83
2023/12/05 00:10:44;;;;;;;21.90;15.87;;;1.00;99.90;;;;;;5075261;28;20044;-83
2023/12/05 00:13:11;;;;;;;22.23;15.15;;;1.00;99.90;;;;;;5075450;28;20052;-83
2023/12/05 00:15:36;;;;;;;22.80;15.55;;;1.10;99.90;;;;;;5075267;28;20041;-83
2023/12/05 00:18:02;;;;;;;23.60;16.50;;;1.10;99.90;;;;;;5074193;28;20052;-83
2023/12/05 00:20:28;;;;;;;21.37;16.17;;;1.10;99.90;;;;;;5074596;28;20059;-83
2023/12/05 00:22:53;;;;;;;21.23;15.80;;;1.10;99.90;;;;;;5075070;28;20119;-83
2023/12/05 00:25:19;;;;;;;23.90;15.93;;;1.10;99.90;;;;;;5075160;28;20401;-83
2023/12/05 00:27:45;;;;;;;22.20;15.23;;;1.10;99.90;;;;;;5057350;28;20048;-83
2023/12/05 00:30:11;;;;;;;23.60;15.77;;;1.00;99.90;;;;;;5075158;28;20480;-83
2023/12/05 00:32:37;;;;;;;19.20;14.60;;;1.00;99.90;;;;;;5075115;28;20048;-83
2023/12/05 00:35:03;;;;;;;23.77;16.53;;;1.10;99.90;;;;;;5073934;28;20063;-83
2023/12/05 00:37:28;;;;;;;20.98;15.10;;;1.10;99.90;;;;;;5075033;28;20067;-83
2023/12/05 00:39:54;;;;;;;21.37;15.43;;;1.10;99.90;;;;;;5073605;28;20486;-83
2023/12/05 00:42:20;;;;;;;19.50;14.40;;;1.10;99.90;;;;;;5074559;28;20049;-82
2023/12/05 00:44:46;;;;;;;28.17;16.63;;;1.10;99.90;;;;;;5074683;28;20048;-83
2023/12/05 00:47:11;;;;;;;24.60;16.17;;;1.10;99.90;;;;;;5075130;28;20040;-83
2023/12/05 00:49:37;;;;;;;25.97;18.13;;;1.10;99.90;;;;;;5074749;28;20150;-82
2023/12/05 00:52:03;;;;;;;20.30;14.87;;;1.00;99.90;;;;;;5073323;28;20059;-83
2023/12/05 00:54:29;;;;;;;25.10;17.23;;;1.00;99.90;;;;;;5074365;28;20404;-83
2023/12/05 00:56:55;;;;;;;23.60;16.77;;;1.00;99.90;;;;;;5074341;28;20128;-83
2023/12/05 00:59:21;;;;;;;22.00;14.97;;;1.00;99.90;;;;;;5074505;28;20289;-83
2023/12/05 01:01:47;;;;;;;24.37;17.07;;;1.20;99.90;;;;;;5073898;28;20052;-83
2023/12/05 01:04:12;;;;;;;20.20;15.13;;;1.10;99.90;;;;;;5074357;28;20040;-83
2023/12/05 01:06:38;;;;;;;22.40;15.57;;;1.10;99.90;;;;;;5074382;28;20044;-83
2023/12/05 01:09:06;;;;;;;24.00;16.47;;;1.10;99.90;;;;;;5073444;28;20047;-83
2023/12/05 01:11:32;;;;;;;20.80;15.50;;;1.10;99.90;;;;;;5074249;28;20128;-83
2023/12/05 01:13:57;;;;;;;23.63;17.17;;;1.10;99.90;;;;;;5055980;28;20135;-83
2023/12/05 01:16:23;;;;;;;22.50;15.70;;;1.10;99.90;;;;;;5073157;28;20050;-83
2023/12/05 01:18:49;;;;;;;21.90;16.30;;;1.20;99.90;;;;;;5073977;28;20056;-83
2023/12/05 01:21:15;;;;;;;24.10;16.47;;;1.10;99.90;;;;;;5073132;28;20048;-83
2023/12/05 01:23:41;;;;;;;25.07;18.17;;;1.10;99.90;;;;;;5074063;28;20051;-84
2023/12/05 01:26:07;;;;;;;20.65;14.82;;;1.20;99.90;;;;;;5073730;28;20499;-84
2023/12/05 01:28:32;;;;;;;24.97;17.63;;;1.10;99.90;;;;;;5074005;28;20041;-83
2023/12/05 01:30:58;;;;;;;22.87;17.13;;;1.10;99.90;;;;;;5073442;28;20055;-83
2023/12/05 01:33:24;;;;;;;24.03;18.83;;;1.10;99.90;;;;;;5074178;28;20042;-83
2023/12/05 01:35:49;;;;;;;26.63;17.50;;;1.10;99.90;;;;;;5073963;28;20393;-83
2023/12/05 01:38:18;;;;;;;23.80;17.93;;;1.10;99.90;;;;;;5073801;28;20076;-84
2023/12/05 01:40:44;;;;;;;25.67;19.05;;;1.20;99.90;;;;;;5074032;28;20084;-84
2023/12/05 01:43:10;;;;;;;27.35;18.70;;;1.10;99.90;;;;;;5072503;28;20056;-83
2023/12/05 01:45:36;;;;;;;29.17;19.43;;;1.10;99.90;;;;;;5073451;28;20048;-84
2023/12/05 01:48:04;;;;;;;24.35;18.85;;;1.10;99.90;;;;;;5073479;28;20086;-84
2023/12/05 01:50:31;;;;;;;25.40;19.20;;;1.10;99.90;;;;;;5073664;28;20053;-84
2023/12/05 01:53:03;;;;;;;28.27;20.77;;;1.10;99.90;;;;;;5073340;28;20080;-83
2023/12/05 01:55:29;;;;;;;27.15;20.35;;;1.20;99.90;;;;;;5072894;28;20062;-84
2023/12/05 01:57:57;;;;;;;26.20;20.45;;;1.10;99.90;;;;;;5073106;28;20044;-84
2023/12/05 02:00:23;;;;;;;28.30;21.08;;;1.10;99.90;;;;;;5071060;28;20055;-84
2023/12/05 02:02:50;;;;;;;30.10;21.95;;;1.00;99.90;;;;;;5071416;28;20290;-84
2023/12/05 02:05:16;;;;;;;27.00;21.27;;;1.00;99.90;;;;;;5071046;28;20048;-84
2023/12/05 02:07:41;;;;;;;30.83;21.67;;;1.00;99.90;;;;;;5070944;28;20519;-85
2023/12/05 02:10:09;;;;;;;30.50;22.03;;;1.00;99.90;;;;;;5070088;28;20056;-84
2023/12/05 02:12:38;;;;;;;31.95;22.42;;;1.00;99.90;;;;;;5071474;28;20132;-83
2023/12/05 02:15:05;;;;;;;29.50;22.65;;;1.00;99.90;;;;;;5071280;28;20040;-83
2023/12/05 02:17:45;;;;;;;31.92;22.40;;;0.90;99.90;;;;;;5071939;28;20373;-83
2023/12/05 02:20:22;;;;;;;29.73;21.38;;;0.90;99.90;;;;;;5073024;28;20128;-83
2023/12/05 02:23:15;;;;;;;28.42;20.15;;;0.90;99.90;;;;;;5073254;28;20563;-83
2023/12/05 02:25:53;;;;;;;30.20;20.98;;;0.90;99.90;;;;;;5073380;28;20460;-83
2023/12/05 02:28:19;;;;;;;31.10;22.08;;;1.00;99.90;;;;;;5073487;28;20119;-84
2023/12/05 02:30:45;;;;;;;25.88;19.30;;;1.10;99.90;;;;;;5072897;28;20429;-83
2023/12/05 02:33:10;;;;;;;32.13;20.33;;;0.90;99.90;;;;;;5072565;28;20135;-83
2023/12/05 02:35:37;;;;;;;32.00;22.30;;;0.90;99.90;;;;;;5073354;28;20040;-83
2023/12/05 02:38:18;;;;;;;26.13;19.58;;;0.90;99.90;;;;;;5072892;28;20389;-83
2023/12/05 02:41:12;;;;;;;27.20;20.40;;;0.90;99.90;;;;;;5072225;28;20123;-83
2023/12/05 02:43:44;;;;;;;30.35;21.90;;;0.90;99.90;;;;;;5072294;28;20059;-83
2023/12/05 02:46:11;;;;;;;32.60;22.05;;;0.80;99.90;;;;;;5072769;28;20045;-83
2023/12/05 02:48:37;;;;;;;30.95;22.30;;;0.80;99.90;;;;;;5073008;28;20052;-83
2023/12/05 02:51:03;;;;;;;31.45;22.23;;;0.80;99.90;;;;;;5071780;28;20044;-83
2023/12/05 02:53:29;;;;;;;30.02;20.98;;;0.80;99.90;;;;;;5073010;28;20049;-83
2023/12/05 02:55:55;;;;;;;30.53;22.43;;;0.90;99.90;;;;;;5073541;28;20045;-84
2023/12/05 02:58:20;;;;;;;33.13;22.83;;;0.90;99.90;;;;;;5072652;28;20123;-84
2023/12/05 03:00:46;;;;;;;27.30;21.07;;;0.80;99.90;;;;;;5072761;28;20071;-84
2023/12/05 03:03:12;;;;;;;31.63;22.20;;;0.80;99.90;;;;;;5072727;28;20049;-84
2023/12/05 03:05:38;;;;;;;30.93;21.70;;;0.90;99.90;;;;;;5072813;28;20110;-84
2023/12/05 03:08:04;;;;;;;30.17;21.20;;;0.90;99.90;;;;;;5072952;28;20122;-84
2023/12/05 03:10:29;;;;;;;34.00;23.30;;;0.80;99.90;;;;;;5073051;28;20485;-83
2023/12/05 03:12:55;;;;;;;35.00;23.53;;;0.80;99.90;;;;;;5071891;28;20051;-84
2023/12/05 03:15:21;;;;;;;31.80;22.33;;;0.80;99.90;;;;;;5072629;28;20123;-83
2023/12/05 03:17:46;;;;;;;33.60;23.50;;;0.80;99.90;;;;;;5072810;28;20051;-83
2023/12/05 03:20:13;;;;;;;32.27;22.20;;;0.80;99.90;;;;;;5054991;28;20041;-82
2023/12/05 03:22:38;;;;;;;33.08;22.40;;;0.80;99.90;;;;;;5072696;28;20048;-83
2023/12/05 03:25:04;;;;;;;37.87;23.73;;;0.80;99.90;;;;;;5072224;28;20051;-83
2023/12/05 03:27:30;;;;;;;35.90;23.75;;;0.70;99.90;;;;;;5072611;28;20061;-83
2023/12/05 03:29:56;;;;;;;34.90;22.83;;;0.80;99.90;;;;;;5072653;28;20060;-82
2023/12/05 03:32:21;;;;;;;38.20;24.97;;;0.70;99.90;;;;;;5074054;28;20114;-83
2023/12/05 03:34:47;;;;;;;35.30;22.60;;;0.80;99.90;;;;;;5075212;28;20045;-82
2023/12/05 03:37:13;;;;;;;36.70;23.27;;;0.70;99.90;;;;;;5075878;28;20598;-82
2023/12/05 03:39:39;;;;;;;33.40;21.43;;;0.70;99.90;;;;;;5076200;28;20119;-82
2023/12/05 03:42:04;;;;;;;36.30;23.57;;;0.70;99.90;;;;;;5075769;28;20484;-82
2023/12/05 03:44:30;;;;;;;37.83;24.07;;;0.70;99.90;;;;;;5074716;28;20140;-82
2023/12/05 03:46:56;;;;;;;36.37;23.17;;;0.70;99.90;;;;;;5075738;28;20139;-81
2023/12/05 03:49:21;;;;;;;35.90;23.10;;;0.70;99.90;;;;;;5074841;28;20106;-81
2023/12/05 03:51:47;;;;;;;36.43;23.57;;;0.70;99.90;;;;;;5075580;28;20488;-81
2023/12/05 03:54:13;;;;;;;34.40;23.43;;;0.70;99.90;;;;;;5075702;28;20501;-81
2023/12/05 03:56:39;;;;;;;43.40;24.63;;;0.70;99.90;;;;;;5074920;28;20545;-81
2023/12/05 03:59:04;;;;;;;44.10;24.70;;;0.70;99.90;;;;;;5075637;28;20182;-81
2023/12/05 04:01:30;;;;;;;38.60;24.17;;;0.60;99.90;;;;;;5075667;28;20056;-81
2023/12/05 04:03:56;;;;;;;35.10;23.00;;;0.70;99.90;;;;;;5074809;28;20055;-81
2023/12/05 04:06:22;;;;;;;39.90;23.43;;;0.60;99.90;;;;;;5075402;28;20045;-81
2023/12/05 04:08:49;;;;;;;31.15;20.73;;;0.70;99.90;;;;;;5075854;28;20056;-81
2023/12/05 04:11:15;;;;;;;31.65;21.63;;;0.80;99.90;;;;;;5075371;28;20048;-81
2023/12/05 04:13:41;;;;;;;33.27;23.03;;;0.70;99.90;;;;;;5075514;28;20110;-81
2023/12/05 04:16:07;;;;;;;31.70;22.20;;;0.60;99.90;;;;;;5075225;28;20274;-81
2023/12/05 04:18:33;;;;;;;32.88;22.40;;;0.70;99.90;;;;;;5075402;28;20044;-81
2023/12/05 04:20:58;;;;;;;33.87;22.53;;;0.70;99.90;;;;;;5075623;28;20052;-82
2023/12/05 04:23:24;;;;;;;32.40;21.57;;;0.70;99.90;;;;;;5075109;28;20358;-82
2023/12/05 04:25:50;;;;;;;34.20;22.73;;;0.70;99.90;;;;;;5057527;28;20480;-81
2023/12/05 04:28:15;;;;;;;35.43;23.63;;;0.70;99.90;;;;;;5074677;28;20092;-81
2023/12/05 04:30:41;;;;;;;36.70;24.07;;;0.70;99.90;;;;;;5074264;28;20049;-81
2023/12/05 04:33:07;;;;;;;38.23;25.00;;;0.60;99.90;;;;;;5074888;28;20461;-81
2023/12/05 04:35:33;;;;;;;32.47;22.30;;;0.60;99.90;;;;;;5075109;28;20036;-81
2023/12/05 04:37:58;;;;;;;36.30;23.80;;;0.70;99.90;;;;;;5074770;28;20488;-81
2023/12/05 04:40:24;;;;;;;37.93;24.07;;;0.70;99.90;;;;;;5074772;28;20067;-81
2023/12/05 04:42:50;;;;;;;37.10;24.27;;;0.60;99.90;;;;;;5056223;28;20108;-81
2023/12/05 04:45:16;;;;;;;35.10;24.17;;;0.70;99.90;;;;;;5074567;28;20056;-81
2023/12/05 04:47:42;;;;;;;37.47;23.87;;;0.70;99.90;;;;;;5074773;28;20389;-81
2023/12/05 04:50:09;;;;;;;36.77;24.73;;;0.60;99.90;;;;;;5075216;28;20048;-81
2023/12/05 04:52:34;;;;;;;34.47;23.40;;;0.60;99.90;;;;;;5074853;28;20285;-81
2023/12/05 04:55:00;;;;;;;37.60;23.90;;;0.60;99.90;;;;;;5074814;28;20131;-81
2023/12/05 04:57:27;;;;;;;34.23;23.80;;;0.60;99.90;;;;;;5074384;28;20374;-81
2023/12/05 04:59:52;;;;;;;34.05;24.05;;;0.60;99.90;;;;;;5074757;28;20401;-83
2023/12/05 05:02:18;;;;;;;34.53;24.07;;;0.60;99.90;;;;;;5072814;28;20048;-82
2023/12/05 05:04:44;;;;;;;36.47;24.33;;;0.60;99.90;;;;;;5074110;28;20131;-83
2023/12/05 05:07:10;;;;;;;37.57;24.67;;;0.60;99.90;;;;;;5074205;28;20103;-82
2023/12/05 05:09:39;;;;;;;41.20;25.48;;;0.60;99.90;;;;;;5074362;28;20051;-82
2023/12/05 05:12:08;;;;;;;33.70;24.15;;;0.60;99.90;;;;;;5074269;28;20080;-82
2023/12/05 05:14:36;;;;;;;36.88;24.77;;;0.60;99.90;;;;;;5074050;28;20120;-81
2023/12/05 05:17:03;;;;;;;41.53;25.88;;;0.60;99.90;;;;;;5074218;28;20123;-82
2023/12/05 05:19:30;;;;;;;39.40;25.23;;;0.60;99.90;;;;;;5072831;28;20044;-82
2023/12/05 05:21:56;;;;;;;35.80;24.05;;;0.60;99.90;;;;;;5074076;28;20154;-78
2023/12/05 05:24:22;;;;;;;34.60;24.80;;;0.70;99.90;;;;;;5072779;28;20052;-83
2023/12/05 05:26:47;;;;;;;39.33;27.00;;;0.70;99.90;;;;;;5073900;28;20392;-82
2023/12/05 05:29:13;;;;;;;34.90;22.70;;;0.60;99.90;;;;;;5072587;28;20129;-81
2023/12/05 05:31:39;;;;;;;37.17;25.03;;;0.60;99.90;;;;;;5073892;28;20044;-81
2023/12/05 05:34:04;;;;;;;40.70;25.00;;;0.70;99.90;;;;;;5073822;28;20132;-81
2023/12/05 05:36:30;;;;;;;37.77;25.40;;;0.60;99.90;;;;;;5073245;28;20139;-81
2023/12/05 05:38:56;;;;;;;40.97;26.33;;;0.60;99.90;;;;;;5056198;28;20044;-82
2023/12/05 05:41:22;;;;;;;37.17;24.20;;;0.70;99.90;;;;;;5073613;28;20045;-82
2023/12/05 05:43:47;;;;;;;38.55;24.90;;;0.60;99.90;;;;;;5074028;28;20121;-81
2023/12/05 05:46:13;;;;;;;37.60;24.50;;;0.60;99.90;;;;;;5073664;28;20040;-83
2023/12/05 05:48:39;;;;;;;38.80;25.57;;;0.60;99.90;;;;;;5073401;28;20420;-83
2023/12/05 05:51:06;;;;;;;34.87;24.17;;;0.60;99.90;;;;;;5072784;28;20045;-82
2023/12/05 05:53:32;;;;;;;37.20;25.85;;;0.60;99.90;;;;;;5073157;28;20059;-82
2023/12/05 05:56:01;;;;;;;34.77;23.77;;;0.60;99.90;;;;;;5073622;28;20115;-83
2023/12/05 05:58:27;;;;;;;36.95;24.70;;;0.60;99.90;;;;;;5073138;28;20056;-83
2023/12/05 06:00:53;;;;;;;33.90;23.88;;;0.70;99.90;;;;;;5073271;28;20481;-82
2023/12/05 06:03:19;;;;;;;36.57;24.70;;;0.70;99.90;;;;;;5073216;28;20131;-83
2023/12/05 06:05:44;;;;;;;38.37;25.97;;;0.60;99.90;;;;;;5073514;28;20123;-83
2023/12/05 06:08:10;;;;;;;37.63;25.13;;;0.70;99.90;;;;;;5073451;28;20056;-83
2023/12/05 06:10:36;;;;;;;36.83;24.10;;;0.60;99.90;;;;;;5073164;28;20048;-82
2023/12/05 06:13:02;;;;;;;33.43;23.33;;;0.60;99.90;;;;;;5073353;28;20052;-83
2023/12/05 06:15:28;;;;;;;36.05;24.20;;;0.60;99.90;;;;;;5073122;28;20072;-83
2023/12/05 06:17:55;;;;;;;37.53;24.70;;;0.60;99.90;;;;;;5073600;28;20137;-83
2023/12/05 06:20:22;;;;;;;34.50;24.00;;;0.70;99.90;;;;;;5073030;28;20088;-82
2023/12/05 06:22:47;;;;;;;35.85;24.00;;;0.70;99.90;;;;;;5073493;28;20040;-83
2023/12/05 06:25:13;;;;;;;36.50;24.73;;;0.70;99.90;;;;;;5073183;28;20047;-83
2023/12/05 06:27:39;;;;;;;35.35;24.05;;;0.60;99.90;;;;;;5073005;28;20044;-83
2023/12/05 06:30:06;;;;;;;35.50;22.93;;;0.70;99.90;;;;;;5073393;28;20072;-83
2023/12/05 06:32:32;;;;;;;33.38;23.73;;;0.70;99.90;;;;;;5072634;28;20477;-83
2023/12/05 06:34:57;;;;;;;35.97;23.70;;;0.70;99.90;;;;;;5073228;28;20046;-83
2023/12/05 06:37:23;;;;;;;35.63;25.17;;;0.70;99.90;;;;;;5072944;28;20654;-82
2023/12/05 06:39:49;;;;;;;37.37;24.27;;;0.70;99.90;;;;;;5072761;28;20167;-82
2023/12/05 06:42:15;;;;;;;35.37;24.10;;;0.70;99.90;;;;;;5073037;28;20102;-83
2023/12/05 06:44:41;;;;;;;34.40;23.10;;;0.80;99.90;;;;;;5072741;28;20054;-83
2023/12/05 06:47:07;;;;;;;36.53;24.20;;;0.70;99.90;;;;;;5072041;28;20112;-83
2023/12/05 06:49:33;;;;;;;40.15;25.20;;;0.70;99.90;;;;;;5072750;28;20045;-83
2023/12/05 06:52:00;;;;;;;39.13;26.40;;;0.70;99.90;;;;;;5073016;28;20078;-83
2023/12/05 06:54:26;;;;;;;35.55;24.42;;;0.70;99.90;;;;;;5072755;28;20114;-83
2023/12/05 06:56:52;;;;;;;37.57;25.20;;;0.60;99.90;;;;;;5071872;28;20480;-83
2023/12/05 06:59:17;;;;;;;40.20;25.33;;;0.70;99.90;;;;;;5072905;28;20087;-83
2023/12/05 07:01:43;;;;;;;37.37;25.20;;;0.60;99.90;;;;;;5071398;28;20093;-83
2023/12/05 07:04:09;;;;;;;35.57;23.87;;;0.60;99.90;;;;;;5072727;28;20053;-83
2023/12/05 07:06:35;;;;;;;37.23;25.00;;;0.70;99.90;;;;;;5074286;28;20051;-83
2023/12/05 07:09:00;;;;;;;38.87;25.00;;;0.70;99.90;;;;;;5075934;28;20579;-83
2023/12/05 07:11:26;;;;;;;39.50;25.23;;;0.70;99.90;;;;;;5076539;28;20044;-83
2023/12/05 07:13:55;;;;;;;35.72;24.77;;;0.70;99.90;;;;;;5076807;28;20084;-84
2023/12/05 07:16:21;;;;;;;39.17;24.98;;;0.60;99.90;;;;;;5075764;28;20052;-83
2023/12/05 07:18:49;;;;;;;40.30;25.80;;;0.60;99.90;;;;;;5076349;28;20373;-83
2023/12/05 07:21:14;;;;;;;40.05;26.15;;;0.70;99.90;;;;;;5076583;28;20053;-83
2023/12/05 07:23:40;;;;;;;33.77;23.63;;;0.60;99.90;;;;;;5076356;28;20048;-83
2023/12/05 07:26:06;;;;;;;37.27;23.63;;;0.60;99.90;;;;;;5075169;28;20570;-83
2023/12/05 07:28:32;;;;;;;38.17;24.65;;;0.70;99.90;;;;;;5076213;28;20145;-83
2023/12/05 07:30:58;;;;;;;37.13;24.13;;;0.60;99.90;;;;;;5076615;28;20125;-83
2023/12/05 07:33:24;;;;;;;38.03;24.53;;;0.60;99.90;;;;;;5075431;28;20044;-83
2023/12/05 07:35:49;;;;;;;32.47;22.33;;;0.60;99.90;;;;;;5075992;28;20082;-83
2023/12/05 07:38:15;;;;;;;33.97;22.27;;;0.60;99.90;;;;;;5076208;28;20048;-83
2023/12/05 07:40:41;;;;;;;37.90;24.77;;;0.60;99.90;;;;;;5075998;28;20516;-83
2023/12/05 07:43:07;;;;;;;40.13;25.67;;;0.60;99.90;;;;;;5076031;28;20048;-83
2023/12/05 07:45:33;;;;;;;43.60;25.60;;;0.60;99.90;;;;;;5074771;28;20044;-83
2023/12/05 07:47:58;;;;;;;38.17;25.53;;;0.60;99.90;;;;;;5076051;28;20052;-83
2023/12/05 07:50:24;;;;;;;39.67;26.80;;;0.60;99.90;;;;;;5075987;28;20056;-82
2023/12/05 07:52:51;;;;;;;40.60;25.53;;;0.60;99.90;;;;;;5075653;28;20048;-83
2023/12/05 07:55:19;;;;;;;38.60;25.15;;;0.60;99.90;;;;;;5075971;28;20047;-82
2023/12/05 07:57:47;;;;;;;37.15;24.35;;;0.60;99.90;;;;;;5075243;28;20496;-82
2023/12/05 08:00:17;;;;;;;39.15;26.02;;;0.50;99.90;;;;;;5075446;28;20084;-82
2023/12/05 08:02:46;;;;;;;34.67;23.73;;;0.60;99.90;;;;;;5075481;28;20052;-83
2023/12/05 08:05:12;;;;;;;40.47;24.77;;;0.60;99.90;;;;;;5075663;28;20469;-83
2023/12/05 08:07:39;;;;;;;43.13;26.30;;;0.60;99.90;;;;;;5074535;28;20052;-83
2023/12/05 08:10:09;;;;;;;39.53;25.35;;;0.60;99.90;;;;;;5074690;28;20489;-84
2023/12/05 08:12:35;;;;;;;39.95;26.20;;;0.60;99.90;;;;;;5075357;28;20098;-83
2023/12/05 08:15:01;;;;;;;43.97;27.48;;;0.70;99.90;;;;;;5075070;28;20508;-84
2023/12/05 08:17:27;;;;;;;41.20;27.00;;;0.60;99.90;;;;;;5074119;28;20036;-84
2023/12/05 08:19:54;;;;;;;39.67;25.47;;;0.70;99.90;;;;;;5074181;28;20182;-83
2023/12/05 08:22:21;;;;;;;43.85;26.70;;;0.60;99.90;;;;;;5075264;28;20127;-83
2023/12/05 08:24:48;;;;;;;37.00;25.08;;;0.60;99.90;;;;;;5075097;28;20178;-83
2023/12/05 08:27:14;;;;;;;44.28;26.90;;;0.70;99.90;;;;;;5075258;28;20044;-82
2023/12/05 08:29:40;;;;;;;42.10;27.60;;;0.60;99.90;;;;;;5075054;28;20055;-84
2023/12/05 08:32:07;;;;;;;47.70;27.07;;;0.70;99.90;;;;;;5074659;28;20282;-83
2023/12/05 08:34:33;;;;;;;48.75;29.88;;;0.50;99.90;;;;;;5074933;28;20049;-82
2023/12/05 08:37:00;;;;;;;42.88;28.02;;;0.60;99.90;;;;;;5074442;28;20497;-83
2023/12/05 08:39:26;;;;;;;38.58;26.55;;;0.70;99.90;;;;;;5074630;28;20051;-81
2023/12/05 08:41:52;;;;;;;37.07;24.87;;;0.70;99.90;;;;;;5074373;28;20044;-82
2023/12/05 08:44:19;;;;;;;40.90;25.98;;;0.70;99.90;;;;;;5074649;28;20145;-81
2023/12/05 08:46:46;;;;;;;40.25;26.35;;;0.70;99.90;;;;;;5057219;28;20394;-83
2023/12/05 08:49:13;;;;;;;36.22;23.95;;;0.70;99.90;;;;;;5074591;28;20484;-82
2023/12/05 08:51:39;;;;;;;39.95;26.15;;;0.70;99.90;;;;;;5074627;28;20145;-80
2023/12/05 08:54:04;;;;;;;45.25;28.27;;;0.70;99.90;;;;;;5074869;28;20087;-80
2023/12/05 08:56:30;;;;;;;42.23;25.90;;;0.70;99.90;;;;;;5074752;28;20378;-80
2023/12/05 08:58:56;;;;;;;40.90;26.37;;;0.70;99.90;;;;;;5073277;28;20520;-80
2023/12/05 09:01:23;;;;;;;44.90;28.00;;;0.70;99.90;;;;;;5074463;28;20052;-81
2023/12/05 09:03:50;;;;;;;39.97;26.65;;;0.70;99.90;;;;;;5074453;28;20098;-81
2023/12/05 09:06:15;;;;;;;40.97;27.45;;;0.70;99.90;;;;;;5074461;28;20050;-81
2023/12/05 09:08:41;;;;;;;39.33;26.07;;;0.70;99.90;;;;;;5074283;28;20044;-81
2023/12/05 09:11:07;;;;;;;41.90;25.87;;;0.70;99.90;;;;;;5074430;28;20052;-81
2023/12/05 09:13:33;;;;;;;40.53;25.58;;;0.70;99.90;;;;;;5074353;28;20543;-81
2023/12/05 09:15:59;;;;;;;44.83;26.40;;;0.80;99.90;;;;;;5074174;28;20127;-80
2023/12/05 09:18:25;;;;;;;43.00;27.80;;;0.70;99.90;;;;;;5074252;28;20746;-80
2023/12/05 09:20:51;;;;;;;41.70;25.27;;;0.70;99.90;;;;;;5074007;28;20056;-81
2023/12/05 09:23:17;;;;;;;41.78;26.38;;;0.80;99.90;;;;;;5056887;28;20106;-81
2023/12/05 09:25:43;;;;;;;43.70;27.17;;;0.80;99.90;;;;;;5072744;28;20132;-82
2023/12/05 09:28:09;;;;;;;38.00;25.50;;;0.70;99.90;;;;;;5074132;28;20127;-81
2023/12/05 09:30:34;;;;;;;42.70;27.47;;;0.80;99.90;;;;;;5073652;28;20481;-80
2023/12/05 09:33:01;;;;;;;44.20;26.97;;;0.80;99.90;;;;;;5073807;28;20107;-80
2023/12/05 09:35:27;;;;;;;40.75;25.90;;;0.70;99.90;;;;;;5073979;28;20040;-80
2023/12/05 09:37:53;;;;;;;42.07;27.67;;;0.80;99.90;;;;;;5073746;28;20131;-78
2023/12/05 09:40:19;;;;;;;47.45;29.17;;;0.80;99.90;;;;;;5056106;28;20067;-79
2023/12/05 09:42:47;;;;;;;43.33;27.93;;;0.80;99.90;;;;;;5073649;28;20079;-79
2023/12/05 09:45:17;;;;;;;39.65;25.40;;;0.80;99.90;;;;;;5072659;28;20052;-78
2023/12/05 09:47:45;;;;;;;42.13;26.83;;;0.80;99.90;;;;;;5073525;28;20040;-79
2023/12/05 09:50:11;;;;;;;40.72;25.85;;;0.80;99.90;;;;;;5073703;28;20577;-80
2023/12/05 09:52:38;;;;;;;39.72;26.50;;;0.80;99.90;;;;;;5072251;28;20128;-79
2023/12/05 09:55:05;;;;;;;38.13;25.08;;;0.80;99.90;;;;;;5073499;28;20141;-79
2023/12/05 09:57:31;;;;;;;40.17;26.55;;;0.80;99.90;;;;;;5072667;28;20507;-80
2023/12/05 09:59:57;;;;;;;38.27;26.03;;;0.80;99.90;;;;;;5073719;28;20041;-79
2023/12/05 10:02:24;;;;;;;41.97;26.47;;;0.80;99.90;;;;;;5073785;28;20060;-80
2023/12/05 10:04:56;;;;;;;41.63;27.55;;;0.80;99.90;;;;;;5072913;28;20484;-80
2023/12/05 10:07:22;;;;;;;38.67;25.95;;;0.90;99.90;;;;;;5073705;28;20049;-80
2023/12/05 10:09:48;;;;;;;36.00;24.43;;;0.90;99.90;;;;;;5073266;28;20130;-80
2023/12/05 10:12:14;;;;;;;38.53;25.45;;;0.80;99.90;;;;;;5071786;28;20045;-80
2023/12/05 10:14:40;;;;;;;36.43;25.40;;;0.80;99.90;;;;;;5072767;28;20094;-81
2023/12/05 10:17:07;;;;;;;39.80;25.83;;;0.80;99.90;;;;;;5055110;28;20503;-81
2023/12/05 10:19:34;;;;;;;39.78;26.38;;;0.90;99.90;;;;;;5072971;28;20170;-80
2023/12/05 10:22:01;;;;;;;41.10;26.88;;;0.80;99.90;;;;;;5071504;28;20051;-78
2023/12/05 10:24:42;;;;;;;38.88;25.73;;;0.90;99.90;;;;;;5070136;28;20515;-78
2023/12/05 10:27:08;;;;;;;35.95;24.95;;;0.80;99.90;;;;;;5070387;28;20113;-80
2023/12/05 10:29:39;;;;;;;40.60;25.47;;;0.80;99.90;;;;;;5072879;28;20041;-80
2023/12/05 10:32:06;;;;;;;39.25;25.90;;;0.80;99.90;;;;;;5072461;28;20044;-80
2023/12/05 10:34:49;;;;;;;33.45;23.77;;;0.90;99.90;;;;;;5072734;28;20484;-80
2023/12/05 10:37:25;;;;;;;37.25;24.42;;;0.80;99.90;;;;;;5071320;28;20492;-79
2023/12/05 10:39:52;;;;;;;36.75;24.85;;;0.90;99.90;;;;;;5069742;28;20052;-80
2023/12/05 10:42:19;;;;;;;35.03;23.08;;;0.90;99.90;;;;;;5075676;28;20046;-79
2023/12/05 10:44:45;;;;;;;35.28;24.77;;;0.80;99.90;;;;;;5074082;28;20083;-74
2023/12/05 10:47:12;;;;;;;34.78;22.35;;;0.80;99.90;;;;;;5076654;28;20445;-76
2023/12/05 10:49:41;;;;;;;33.35;23.67;;;0.90;99.90;;;;;;5076764;28;20040;-83
2023/12/05 10:52:08;;;;;;;38.92;25.92;;;0.80;99.90;;;;;;5059100;28;20048;-80
2023/12/05 10:54:34;;;;;;;37.20;25.00;;;0.90;99.90;;;;;;5076887;28;20040;-80
2023/12/05 10:57:00;;;;;;;39.30;25.73;;;0.80;99.90;;;;;;5075184;28;20190;-80
2023/12/05 10:59:27;;;;;;;37.90;23.97;;;0.90;99.90;;;;;;5075623;28;20053;-80
2023/12/05 11:01:56;;;;;;;36.40;24.75;;;1.00;99.90;;;;;;5075626;28;20065;-81
2023/12/05 11:04:26;;;;;;;39.58;26.40;;;0.80;99.90;;;;;;5076822;28;20049;-79
2023/12/05 11:06:54;;;;;;;37.05;24.92;;;0.90;99.90;;;;;;5075688;28;20044;-81
2023/12/05 11:09:23;;;;;;;35.92;25.42;;;0.80;99.90;;;;;;5076767;28;20056;-80
2023/12/05 11:11:52;;;;;;;36.83;25.05;;;0.90;99.90;;;;;;5076737;28;20481;-80
2023/12/05 11:14:21;;;;;;;34.97;24.85;;;0.80;99.90;;;;;;5076716;28;20460;-80
2023/12/05 11:16:49;;;;;;;40.83;25.90;;;0.90;99.90;;;;;;5076663;28;20040;-80
2023/12/05 11:19:34;;;;;;;34.47;24.65;;;0.90;99.90;;;;;;5076679;28;20052;-80
2023/12/05 11:22:21;;;;;;;40.80;26.33;;;0.90;99.90;;;;;;5075543;28;20052;-80
2023/12/05 11:25:32;;;;;;;39.80;24.35;;;0.90;99.90;;;;;;5076595;28;20047;-80
2023/12/05 11:28:03;;;;;;;39.75;26.40;;;0.80;99.90;;;;;;5076281;28;20055;-81
2023/12/05 11:30:29;;;;;;;36.22;24.67;;;0.90;99.90;;;;;;5076561;28;20405;-80
2023/12/05 11:33:02;;;;;;;41.13;26.97;;;0.90;99.90;;;;;;5076136;28;20055;-81
2023/12/05 11:35:58;;;;;;;37.45;25.83;;;0.80;99.90;;;;;;5076409;28;20396;-80
2023/12/05 11:38:24;;;;;;;41.58;26.27;;;0.90;99.90;;;;;;5076246;28;20063;-80
2023/12/05 11:41:14;;;;;;;38.00;25.58;;;0.80;99.90;;;;;;5076190;28;20577;-80
2023/12/05 11:43:44;;;;;;;39.50;25.33;;;0.80;99.90;;;;;;5076177;28;20041;-80
2023/12/05 11:46:10;;;;;;;38.22;25.42;;;0.80;99.90;;;;;;5075801;28;20051;-81
2023/12/05 11:48:36;;;;;;;39.90;26.17;;;0.80;99.90;;;;;;5076042;28;20044;-80
2023/12/05 11:51:02;;;;;;;35.27;24.00;;;0.80;99.90;;;;;;5075830;28;20496;-81
2023/12/05 11:53:29;;;;;;;39.80;25.90;;;0.80;99.90;;;;;;5075584;28;20052;-81
2023/12/05 11:55:57;;;;;;;38.67;26.02;;;0.80;99.90;;;;;;5075870;28;20051;-82
2023/12/05 11:58:32;;;;;;;39.03;27.00;;;0.80;99.90;;;;;;5075375;28;20062;-83
2023/12/05 12:01:09;;;;;;;;;;;0.80;99.90;;;;;;5075935;28;20503;-81
2023/12/05 12:03:48;;;;;;;43.38;26.95;;;0.80;99.90;;;;;;5075751;28;19927;-85
2023/12/05 12:06:17;;;;;;;42.72;26.42;;;0.80;99.90;;;;;;5075427;28;20127;-78
2023/12/05 12:08:45;;;;;;;36.80;24.00;;;0.80;99.90;;;;;;5075584;28;20045;-77
2023/12/05 12:11:11;;;;;;;38.53;25.00;;;0.90;99.90;;;;;;5075439;28;20056;-88
2023/12/05 12:13:37;;;;;;;38.53;26.33;;;0.80;99.90;;;;;;5075590;28;20048;-81
2023/12/05 12:16:03;;;;;;;37.20;24.80;;;0.90;99.90;;;;;;5075103;28;20078;-80
2023/12/05 12:18:29;;;;;;;36.85;25.58;;;0.90;99.90;;;;;;5057926;28;20106;-77
2023/12/05 12:20:54;;;;;;;41.27;27.07;;;0.80;99.90;;;;;;5075467;28;20477;-77
2023/12/05 12:23:20;;;;;;;37.63;25.90;;;0.80;99.90;;;;;;5074176;28;20041;-77
2023/12/05 12:25:54;;;;;;;46.80;28.98;;;0.80;99.90;;;;;;5074183;28;20102;-78
2023/12/05 12:28:28;;;;;;;39.15;27.05;;;0.80;99.90;;;;;;5075136;28;20134;-77
2023/12/05 12:30:58;;;;;;;37.22;25.85;;;0.80;99.90;;;;;;5075304;28;20056;-78
2023/12/05 12:33:38;;;;;;;40.00;25.88;;;0.90;99.90;;;;;;5074298;28;20059;-78
2023/12/05 12:36:05;;;;;;;45.28;27.83;;;0.90;99.90;;;;;;5075166;28;20076;-78
2023/12/05 12:38:35;;;;;;;38.88;26.65;;;0.90;99.90;;;;;;5074792;28;20507;-79